sensor_id;sensor_type;location;lat;lon;timestamp;pressure;altitude;pressure_sealevel;temperature;humidity
35676;BME280;21790;42.668;23.298;2023-02-01T00:02:06;94760.81;;;9.25;41.15
35676;BME280;21790;42.668;23.298;2023-02-01T00:04:34;94761.84;;;9.18;41.02
35676;BME280;21790;42.668;23.298;2023-02-01T00:07:01;94759.31;;;9.33;40.86
35676;BME280;21790;42.668;23.298;2023-02-01T00:09:26;94765.56;;;9.24;40.71
35676;BME280;21790;42.668;23.298;2023-02-01T00:11:52;94763.63;;;9.34;40.35
35676;BME280;21790;42.668;23.298;2023-02-01T00:14:18;94774.16;;;9.27;40.63
35676;BME280;21790;42.668;23.298;2023-02-01T00:16:49;94766.91;;;9.51;40.52
35676;BME280;21790;42.668;23.298;2023-02-01T00:22:30;94763.00;;;9.30;40.29
35676;BME280;21790;42.668;23.298;2023-02-01T00:31:41;94764.66;;;9.06;40.67
35676;BME280;21790;42.668;23.298;2023-02-01T00:34:13;94757.94;;;9.07;40.58
35676;BME280;21790;42.668;23.298;2023-02-01T00:36:56;94733.22;;;9.16;40.26
35676;BME280;21790;42.668;23.298;2023-02-01T00:39:23;94740.00;;;9.02;40.11
35676;BME280;21790;42.668;23.298;2023-02-01T00:42:05;94754.56;;;9.34;39.11
35676;BME280;21790;42.668;23.298;2023-02-01T00:44:34;94761.22;;;9.14;39.63
35676;BME280;21790;42.668;23.298;2023-02-01T00:47:01;94755.88;;;9.20;39.52
35676;BME280;21790;42.668;23.298;2023-02-01T00:49:44;94762.84;;;9.34;39.17
35676;BME280;21790;42.668;23.298;2023-02-01T00:58:42;94741.88;;;9.05;39.29
35676;BME280;21790;42.668;23.298;2023-02-01T01:01:29;94743.69;;;9.30;39.07
35676;BME280;21790;42.668;23.298;2023-02-01T01:03:57;94745.34;;;9.28;39.33
35676;BME280;21790;42.668;23.298;2023-02-01T01:06:27;94747.63;;;9.20;39.02
35676;BME280;21790;42.668;23.298;2023-02-01T01:09:01;94746.84;;;9.19;38.85
35676;BME280;21790;42.668;23.298;2023-02-01T01:11:30;94750.03;;;9.18;39.05
35676;BME280;21790;42.668;23.298;2023-02-01T01:17:05;94744.56;;;8.96;39.00
35676;BME280;21790;42.668;23.298;2023-02-01T01:20:02;94744.69;;;9.14;38.67
35676;BME280;21790;42.668;23.298;2023-02-01T01:22:29;94742.91;;;8.99;38.67
35676;BME280;21790;42.668;23.298;2023-02-01T01:25:01;94730.72;;;9.09;38.41
35676;BME280;21790;42.668;23.298;2023-02-01T01:27:27;94733.28;;;8.81;38.08
35676;BME280;21790;42.668;23.298;2023-02-01T01:30:01;94727.41;;;8.70;38.56
35676;BME280;21790;42.668;23.298;2023-02-01T01:32:39;94734.06;;;9.04;38.18
35676;BME280;21790;42.668;23.298;2023-02-01T01:35:23;94740.66;;;8.85;38.26
35676;BME280;21790;42.668;23.298;2023-02-01T01:38:21;94750.41;;;8.98;38.22
35676;BME280;21790;42.668;23.298;2023-02-01T01:40:47;94742.00;;;8.80;38.28
35676;BME280;21790;42.668;23.298;2023-02-01T01:46:18;94750.66;;;8.91;38.36
35676;BME280;21790;42.668;23.298;2023-02-01T01:52:09;94749.88;;;8.69;38.29
35676;BME280;21790;42.668;23.298;2023-02-01T01:54:39;94751.09;;;8.90;38.00
35676;BME280;21790;42.668;23.298;2023-02-01T01:57:14;94760.28;;;8.87;37.97
35676;BME280;21790;42.668;23.298;2023-02-01T01:59:49;94750.16;;;8.62;37.99
35676;BME280;21790;42.668;23.298;2023-02-01T02:02:31;94748.66;;;8.48;38.31
35676;BME280;21790;42.668;23.298;2023-02-01T02:04:58;94751.19;;;8.43;38.59
35676;BME280;21790;42.668;23.298;2023-02-01T02:07:37;94743.78;;;8.74;38.02
35676;BME280;21790;42.668;23.298;2023-02-01T02:10:09;94743.00;;;8.52;38.62
35676;BME280;21790;42.668;23.298;2023-02-01T02:33:57;94740.25;;;8.73;37.78
35676;BME280;21790;42.668;23.298;2023-02-01T02:49:10;94735.22;;;8.50;37.81
35676;BME280;21790;42.668;23.298;2023-02-01T02:51:41;94730.13;;;8.49;38.18
35676;BME280;21790;42.668;23.298;2023-02-01T02:54:36;94737.63;;;8.48;38.13
35676;BME280;21790;42.668;23.298;2023-02-01T02:57:34;94742.16;;;8.42;38.23
35676;BME280;21790;42.668;23.298;2023-02-01T03:00:33;94730.56;;;8.47;37.54
35676;BME280;21790;42.668;23.298;2023-02-01T03:03:21;94739.66;;;8.35;38.13
35676;BME280;21790;42.668;23.298;2023-02-01T03:06:12;94733.56;;;8.40;37.80
35676;BME280;21790;42.668;23.298;2023-02-01T03:23:18;94766.47;;;8.09;37.91
35676;BME280;21790;42.668;23.298;2023-02-01T03:25:53;94763.03;;;8.18;37.44
35676;BME280;21790;42.668;23.298;2023-02-01T03:37:39;94769.06;;;8.38;37.39
35676;BME280;21790;42.668;23.298;2023-02-01T03:40:25;94762.00;;;8.37;37.63
35676;BME280;21790;42.668;23.298;2023-02-01T03:45:58;94767.78;;;8.52;37.41
35676;BME280;21790;42.668;23.298;2023-02-01T03:51:03;94761.22;;;8.49;37.62
35676;BME280;21790;42.668;23.298;2023-02-01T03:53:31;94754.78;;;8.52;37.71
35676;BME280;21790;42.668;23.298;2023-02-01T04:02:13;94769.94;;;8.69;37.04
35676;BME280;21790;42.668;23.298;2023-02-01T04:08:19;94772.25;;;8.36;38.72
35676;BME280;21790;42.668;23.298;2023-02-01T04:13:48;94767.75;;;8.64;37.65
35676;BME280;21790;42.668;23.298;2023-02-01T04:19:17;94770.00;;;7.97;39.00
35676;BME280;21790;42.668;23.298;2023-02-01T04:24:52;94780.13;;;7.87;39.27
35676;BME280;21790;42.668;23.298;2023-02-01T04:27:18;94773.84;;;7.99;39.67
35676;BME280;21790;42.668;23.298;2023-02-01T04:30:07;94773.00;;;8.50;38.69
35676;BME280;21790;42.668;23.298;2023-02-01T04:32:39;94780.66;;;8.08;39.47
35676;BME280;21790;42.668;23.298;2023-02-01T04:35:22;94778.59;;;8.46;39.25
35676;BME280;21790;42.668;23.298;2023-02-01T04:37:48;94765.16;;;8.48;39.36
35676;BME280;21790;42.668;23.298;2023-02-01T04:40:26;94759.88;;;8.75;39.02
35676;BME280;21790;42.668;23.298;2023-02-01T04:43:20;94770.97;;;8.85;38.61
35676;BME280;21790;42.668;23.298;2023-02-01T04:45:51;94769.31;;;8.87;39.09
35676;BME280;21790;42.668;23.298;2023-02-01T04:48:25;94777.25;;;9.07;38.78
35676;BME280;21790;42.668;23.298;2023-02-01T04:50:53;94772.84;;;8.88;38.99
35676;BME280;21790;42.668;23.298;2023-02-01T04:53:39;94775.81;;;9.24;38.38
35676;BME280;21790;42.668;23.298;2023-02-01T04:56:08;94781.34;;;9.02;38.50
35676;BME280;21790;42.668;23.298;2023-02-01T04:58:35;94783.59;;;8.95;39.01
35676;BME280;21790;42.668;23.298;2023-02-01T05:01:05;94791.09;;;8.94;38.96
35676;BME280;21790;42.668;23.298;2023-02-01T05:03:36;94787.69;;;8.90;39.21
35676;BME280;21790;42.668;23.298;2023-02-01T05:06:06;94795.13;;;9.02;39.13
35676;BME280;21790;42.668;23.298;2023-02-01T05:08:32;94793.56;;;8.79;39.49
35676;BME280;21790;42.668;23.298;2023-02-01T05:10:58;94796.22;;;8.83;39.41
35676;BME280;21790;42.668;23.298;2023-02-01T05:13:26;94798.50;;;8.85;39.53
35676;BME280;21790;42.668;23.298;2023-02-01T05:16:12;94816.09;;;9.00;52.36
35676;BME280;21790;42.668;23.298;2023-02-01T05:18:41;94800.47;;;11.66;54.04
35676;BME280;21790;42.668;23.298;2023-02-01T05:21:07;94804.75;;;11.76;41.91
35676;BME280;21790;42.668;23.298;2023-02-01T05:23:33;94801.28;;;11.30;36.36
35676;BME280;21790;42.668;23.298;2023-02-01T05:26:21;94799.00;;;10.65;36.89
35676;BME280;21790;42.668;23.298;2023-02-01T05:28:46;94794.25;;;10.56;36.90
35676;BME280;21790;42.668;23.298;2023-02-01T05:31:22;94802.06;;;10.30;37.51
35676;BME280;21790;42.668;23.298;2023-02-01T05:33:50;94792.28;;;10.07;37.85
35676;BME280;21790;42.668;23.298;2023-02-01T05:36:26;94805.94;;;10.02;38.17
35676;BME280;21790;42.668;23.298;2023-02-01T05:42:20;94802.56;;;9.67;38.82
35676;BME280;21790;42.668;23.298;2023-02-01T05:44:46;94803.84;;;9.22;38.88
35676;BME280;21790;42.668;23.298;2023-02-01T05:47:13;94802.75;;;8.98;39.59
35676;BME280;21790;42.668;23.298;2023-02-01T05:49:48;94801.56;;;9.21;39.38
35676;BME280;21790;42.668;23.298;2023-02-01T05:52:17;94805.06;;;9.21;39.55
35676;BME280;21790;42.668;23.298;2023-02-01T06:11:07;94797.84;;;9.15;39.17
35676;BME280;21790;42.668;23.298;2023-02-01T06:13:43;94776.81;;;8.87;39.16
35676;BME280;21790;42.668;23.298;2023-02-01T06:16:13;94777.00;;;8.92;39.49
35676;BME280;21790;42.668;23.298;2023-02-01T07:05:24;94830.13;;;9.36;37.96
35676;BME280;21790;42.668;23.298;2023-02-01T07:07:52;94833.78;;;9.33;37.85
35676;BME280;21790;42.668;23.298;2023-02-01T07:13:51;94835.66;;;9.36;37.62
35676;BME280;21790;42.668;23.298;2023-02-01T07:53:11;94900.97;;;9.92;36.88
35676;BME280;21790;42.668;23.298;2023-02-01T07:55:50;94885.88;;;9.84;37.26
35676;BME280;21790;42.668;23.298;2023-02-01T07:58:38;94897.38;;;9.82;37.39
35676;BME280;21790;42.668;23.298;2023-02-01T08:01:16;94864.53;;;9.75;37.37
35676;BME280;21790;42.668;23.298;2023-02-01T08:04:15;94904.97;;;10.22;36.65
35676;BME280;21790;42.668;23.298;2023-02-01T08:06:53;94875.25;;;10.04;36.71
35676;BME280;21790;42.668;23.298;2023-02-01T08:12:30;94872.69;;;9.79;36.54
35676;BME280;21790;42.668;23.298;2023-02-01T09:07:32;94909.78;;;10.30;35.83
35676;BME280;21790;42.668;23.298;2023-02-01T09:10:37;94893.97;;;10.31;36.63
35676;BME280;21790;42.668;23.298;2023-02-01T09:13:12;94865.56;;;10.30;36.07
35676;BME280;21790;42.668;23.298;2023-02-01T09:15:46;94875.28;;;10.53;36.24
35676;BME280;21790;42.668;23.298;2023-02-01T09:18:36;94901.00;;;10.72;35.41
35676;BME280;21790;42.668;23.298;2023-02-01T09:21:24;94906.34;;;10.57;35.96
35676;BME280;21790;42.668;23.298;2023-02-01T10:26:08;94805.78;;;14.33;30.08
35676;BME280;21790;42.668;23.298;2023-02-01T10:29:04;94787.09;;;14.34;30.23
35676;BME280;21790;42.668;23.298;2023-02-01T10:31:42;94806.06;;;14.50;29.71
35676;BME280;21790;42.668;23.298;2023-02-01T10:37:51;94795.75;;;15.17;29.30
35676;BME280;21790;42.668;23.298;2023-02-01T10:40:28;94796.88;;;15.25;29.32
35676;BME280;21790;42.668;23.298;2023-02-01T10:43:00;94770.81;;;14.61;28.96
35676;BME280;21790;42.668;23.298;2023-02-01T10:45:34;94769.47;;;14.57;29.75
35676;BME280;21790;42.668;23.298;2023-02-01T10:48:10;94757.91;;;14.09;29.92
35676;BME280;21790;42.668;23.298;2023-02-01T10:51:12;94799.03;;;14.54;29.46
35676;BME280;21790;42.668;23.298;2023-02-01T10:54:34;94817.09;;;14.44;29.88
35676;BME280;21790;42.668;23.298;2023-02-01T10:56:57;94806.16;;;14.26;30.03
35676;BME280;21790;42.668;23.298;2023-02-01T10:59:28;94776.22;;;14.36;29.45
35676;BME280;21790;42.668;23.298;2023-02-01T11:05:17;94781.00;;;14.15;29.92
35676;BME280;21790;42.668;23.298;2023-02-01T11:11:06;94775.94;;;13.99;29.80
35676;BME280;21790;42.668;23.298;2023-02-01T11:19:36;94786.31;;;14.33;29.59
35676;BME280;21790;42.668;23.298;2023-02-01T11:46:46;94740.97;;;14.62;29.00
35676;BME280;21790;42.668;23.298;2023-02-01T13:56:41;94707.09;;;13.88;28.69
35676;BME280;21790;42.668;23.298;2023-02-01T14:08:21;94744.25;;;13.91;28.69
35676;BME280;21790;42.668;23.298;2023-02-01T17:49:26;94703.53;;;10.73;32.60
35676;BME280;21790;42.668;23.298;2023-02-01T17:55:31;94696.13;;;10.88;32.35
35676;BME280;21790;42.668;23.298;2023-02-01T17:57:58;94700.66;;;11.27;32.39
35676;BME280;21790;42.668;23.298;2023-02-01T18:00:49;94706.59;;;11.86;31.83
35676;BME280;21790;42.668;23.298;2023-02-01T18:03:38;94712.97;;;12.01;31.86
35676;BME280;21790;42.668;23.298;2023-02-01T18:06:22;94707.59;;;11.98;31.54
35676;BME280;21790;42.668;23.298;2023-02-01T18:08:51;94702.13;;;11.47;32.08
35676;BME280;21790;42.668;23.298;2023-02-01T18:11:21;94718.13;;;11.85;31.97
35676;BME280;21790;42.668;23.298;2023-02-01T18:14:01;94685.78;;;11.91;31.51
35676;BME280;21790;42.668;23.298;2023-02-01T18:16:29;94713.84;;;11.84;31.64
35676;BME280;21790;42.668;23.298;2023-02-01T18:18:58;94728.28;;;11.88;31.81
35676;BME280;21790;42.668;23.298;2023-02-01T18:21:47;94712.25;;;11.92;31.91
35676;BME280;21790;42.668;23.298;2023-02-01T18:24:14;94714.03;;;11.71;32.08
35676;BME280;21790;42.668;23.298;2023-02-01T18:26:41;94702.00;;;11.83;32.23
35676;BME280;21790;42.668;23.298;2023-02-01T18:29:07;94708.47;;;11.71;32.03
35676;BME280;21790;42.668;23.298;2023-02-01T18:31:34;94693.97;;;11.01;32.27
35676;BME280;21790;42.668;23.298;2023-02-01T18:36:37;94690.22;;;11.22;31.66
35676;BME280;21790;42.668;23.298;2023-02-01T18:41:37;94689.91;;;11.62;31.23
35676;BME280;21790;42.668;23.298;2023-02-01T18:44:04;94703.50;;;11.84;30.99
35676;BME280;21790;42.668;23.298;2023-02-01T18:46:30;94704.13;;;11.88;31.31
35676;BME280;21790;42.668;23.298;2023-02-01T18:49:00;94665.16;;;11.59;31.48
35676;BME280;21790;42.668;23.298;2023-02-01T18:51:25;94692.97;;;11.64;31.65
35676;BME280;21790;42.668;23.298;2023-02-01T18:53:58;94684.25;;;11.90;31.28
35676;BME280;21790;42.668;23.298;2023-02-01T18:56:43;94676.91;;;11.87;31.23
35676;BME280;21790;42.668;23.298;2023-02-01T18:59:29;94670.84;;;11.97;31.18
35676;BME280;21790;42.668;23.298;2023-02-01T19:02:12;94672.13;;;11.87;30.99
35676;BME280;21790;42.668;23.298;2023-02-01T19:04:47;94680.03;;;12.03;30.90
35676;BME280;21790;42.668;23.298;2023-02-01T19:09:43;94642.78;;;11.81;30.44
35676;BME280;21790;42.668;23.298;2023-02-01T19:12:08;94679.31;;;11.94;30.33
35676;BME280;21790;42.668;23.298;2023-02-01T19:19:46;94689.09;;;11.71;30.32
35676;BME280;21790;42.668;23.298;2023-02-01T19:22:12;94686.16;;;11.84;30.55
35676;BME280;21790;42.668;23.298;2023-02-01T19:24:38;94687.25;;;11.77;30.86
35676;BME280;21790;42.668;23.298;2023-02-01T19:27:04;94676.78;;;11.81;30.96
35676;BME280;21790;42.668;23.298;2023-02-01T19:29:31;94668.72;;;11.92;30.79
35676;BME280;21790;42.668;23.298;2023-02-01T19:31:56;94673.41;;;12.01;30.52
35676;BME280;21790;42.668;23.298;2023-02-01T19:34:22;94649.22;;;11.87;30.62
35676;BME280;21790;42.668;23.298;2023-02-01T19:36:49;94655.44;;;11.96;30.77
35676;BME280;21790;42.668;23.298;2023-02-01T19:39:15;94666.28;;;12.09;30.54
35676;BME280;21790;42.668;23.298;2023-02-01T19:41:40;94658.22;;;11.96;30.50
35676;BME280;21790;42.668;23.298;2023-02-01T19:44:19;94667.00;;;12.72;40.86
35676;BME280;21790;42.668;23.298;2023-02-01T19:46:45;94640.38;;;13.33;30.12
35676;BME280;21790;42.668;23.298;2023-02-01T19:49:13;94666.66;;;12.93;29.72
35676;BME280;21790;42.668;23.298;2023-02-01T19:51:39;94658.13;;;12.82;29.69
35676;BME280;21790;42.668;23.298;2023-02-01T19:54:07;94675.63;;;12.59;29.81
35676;BME280;21790;42.668;23.298;2023-02-01T19:56:34;94659.44;;;12.57;29.88
35676;BME280;21790;42.668;23.298;2023-02-01T19:59:00;94673.31;;;12.57;29.61
35676;BME280;21790;42.668;23.298;2023-02-01T20:01:26;94658.69;;;12.57;29.50
35676;BME280;21790;42.668;23.298;2023-02-01T20:03:52;94670.41;;;12.37;29.81
35676;BME280;21790;42.668;23.298;2023-02-01T20:39:35;94664.38;;;11.25;34.05
35676;BME280;21790;42.668;23.298;2023-02-01T21:50:38;94706.91;;;10.68;35.16
35676;BME280;21790;42.668;23.298;2023-02-01T21:55:39;94703.81;;;10.84;34.94
35676;BME280;21790;42.668;23.298;2023-02-01T21:58:06;94696.63;;;10.50;35.68
35676;BME280;21790;42.668;23.298;2023-02-01T22:00:37;94699.66;;;10.88;35.11
35676;BME280;21790;42.668;23.298;2023-02-01T22:03:03;94718.84;;;10.92;35.38
35676;BME280;21790;42.668;23.298;2023-02-01T22:05:29;94689.09;;;10.60;35.68
35676;BME280;21790;42.668;23.298;2023-02-01T23:31:25;94699.63;;;11.91;31.33
